createdAt,value
2023-04-06T00:03:50.670Z,10.80
2023-04-06T00:08:01.751Z,10.90
2023-04-06T00:12:10.715Z,10.90
2023-04-06T00:16:19.698Z,10.90
2023-04-06T00:20:28.736Z,11.00
2023-04-06T00:24:39.168Z,11.00
2023-04-06T00:28:48.054Z,11.00
2023-04-06T00:32:57.272Z,11.00
2023-04-06T00:37:06.262Z,11.00
2023-04-06T00:41:16.908Z,11.10
2023-04-06T00:45:25.753Z,11.00
2023-04-06T00:49:35.313Z,11.10
2023-04-06T00:53:44.334Z,11.10
2023-04-06T00:57:55.146Z,11.20
2023-04-06T01:02:04.239Z,11.20
2023-04-06T01:06:13.145Z,11.30
2023-04-06T01:10:29.027Z,11.30
2023-04-06T01:14:39.769Z,11.30
2023-04-06T01:18:48.982Z,11.30
2023-04-06T01:22:59.325Z,11.30
2023-04-06T01:27:08.288Z,11.30
2023-04-06T01:31:17.263Z,11.30
2023-04-06T01:35:28.228Z,11.30
2023-04-06T01:39:38.859Z,11.30
2023-04-06T01:43:49.807Z,11.30
2023-04-06T01:47:58.768Z,11.30
2023-04-06T01:52:07.815Z,11.40
2023-04-06T01:56:18.216Z,11.30
2023-04-06T02:00:27.123Z,11.40
2023-04-06T02:04:36.371Z,11.40
2023-04-06T02:08:45.353Z,11.40
2023-04-06T02:12:55.780Z,11.40
2023-04-06T02:17:04.786Z,11.40
2023-04-06T02:21:13.952Z,11.40
2023-04-06T02:25:22.869Z,11.50
2023-04-06T02:29:33.301Z,11.50
2023-04-06T02:33:42.411Z,11.50
2023-04-06T02:37:51.368Z,11.50
2023-04-06T02:42:00.331Z,11.50
2023-04-06T02:46:10.870Z,11.50
2023-04-06T02:50:19.824Z,11.50
2023-04-06T02:54:28.750Z,11.50
2023-04-06T02:58:38.173Z,11.50
2023-04-06T03:02:48.666Z,11.40
2023-04-06T03:07:00.769Z,11.40
2023-04-06T03:11:10.249Z,11.40
2023-04-06T03:15:19.267Z,11.40
2023-04-06T03:19:29.662Z,11.40
2023-04-06T03:23:38.589Z,11.40
2023-04-06T03:27:47.492Z,11.40
2023-04-06T03:31:56.507Z,11.50
2023-04-06T03:36:08.074Z,11.50
2023-04-06T03:40:17.305Z,11.50
2023-04-06T03:44:26.276Z,11.50
2023-04-06T03:48:35.568Z,11.50
2023-04-06T03:52:46.112Z,11.50
2023-04-06T03:56:55.155Z,11.50
2023-04-06T04:01:04.031Z,11.50
2023-04-06T04:05:13.102Z,11.60
2023-04-06T04:09:23.598Z,11.60
2023-04-06T04:13:32.556Z,11.60
2023-04-06T04:17:43.281Z,11.60
2023-04-06T04:21:53.248Z,11.60
2023-04-06T04:26:03.708Z,11.70
2023-04-06T04:30:12.980Z,11.70
2023-04-06T04:34:25.041Z,11.70
2023-04-06T04:38:34.012Z,11.70
2023-04-06T04:42:44.439Z,11.70
2023-04-06T04:46:53.362Z,11.70
2023-04-06T04:51:02.747Z,11.70
2023-04-06T04:55:11.931Z,11.80
2023-04-06T04:59:22.482Z,11.70
2023-04-06T05:03:31.752Z,11.70
2023-04-06T05:07:40.876Z,11.70
2023-04-06T05:11:49.815Z,11.80
2023-04-06T05:16:00.329Z,11.80
2023-04-06T05:20:10.181Z,11.80
2023-04-06T05:24:19.120Z,11.80
2023-04-06T05:28:28.422Z,11.80
2023-04-06T05:32:39.005Z,11.90
2023-04-06T05:36:47.990Z,11.80
2023-04-06T05:40:57.067Z,11.90
2023-04-06T05:45:06.636Z,11.90
2023-04-06T05:49:17.058Z,11.90
2023-04-06T05:53:27.640Z,12.00
2023-04-06T05:57:36.661Z,12.00
2023-04-06T06:01:45.671Z,12.00
2023-04-06T06:05:56.157Z,12.10
2023-04-06T06:10:05.528Z,12.10
2023-04-06T06:14:14.450Z,12.10
2023-04-06T06:18:23.466Z,12.10
2023-04-06T06:22:33.954Z,12.10
2023-04-06T06:26:43.036Z,12.10
2023-04-06T06:30:51.962Z,12.20
2023-04-06T06:35:01.094Z,12.20
2023-04-06T06:39:11.771Z,12.20
2023-04-06T06:43:21.120Z,12.20
2023-04-06T06:47:29.982Z,12.20
2023-04-06T06:51:39.066Z,12.20
2023-04-06T06:55:50.193Z,12.20
2023-04-06T07:00:01.298Z,12.30
2023-04-06T07:04:11.317Z,12.30
2023-04-06T07:08:20.927Z,12.30
2023-04-06T07:12:31.616Z,12.40
2023-04-06T07:16:40.938Z,12.40
2023-04-06T07:20:50.219Z,12.40
2023-04-06T07:25:02.795Z,12.40
2023-04-06T07:29:23.493Z,12.40
2023-04-06T07:33:39.237Z,12.50
2023-04-06T07:37:48.693Z,12.60
2023-04-06T07:42:00.294Z,12.60
2023-04-06T07:46:11.905Z,12.60
2023-04-06T07:50:21.577Z,12.60
2023-04-06T07:54:31.150Z,12.60
2023-04-06T07:58:40.754Z,12.60
2023-04-06T08:02:51.821Z,12.60
2023-04-06T08:07:01.285Z,12.70
2023-04-06T08:11:10.729Z,12.80
2023-04-06T08:15:20.858Z,12.80
2023-04-06T08:19:31.717Z,12.90
2023-04-06T08:23:46.385Z,13.00
2023-04-06T08:28:07.835Z,13.10
2023-04-06T08:32:17.330Z,13.20
2023-04-06T08:36:29.953Z,13.10
2023-04-06T08:40:41.863Z,13.10
2023-04-06T08:44:54.337Z,13.10
2023-04-06T08:49:08.170Z,12.80
2023-04-06T08:53:24.147Z,12.80
2023-04-06T08:57:34.903Z,12.70
2023-04-06T09:01:47.972Z,12.60
2023-04-06T09:05:57.895Z,12.60
2023-04-06T09:10:10.836Z,12.70
2023-04-06T09:14:35.687Z,12.80
2023-04-06T09:18:47.375Z,12.80
2023-04-06T09:22:59.534Z,12.90
2023-04-06T09:27:12.974Z,13.10
2023-04-06T09:31:26.915Z,13.30
2023-04-06T09:35:36.576Z,13.40
2023-04-06T09:39:45.972Z,13.40
2023-04-06T09:44:06.145Z,13.40
2023-04-06T09:48:15.856Z,13.50
2023-04-06T09:52:26.985Z,13.60
2023-04-06T09:56:42.298Z,13.60
2023-04-06T10:00:59.382Z,13.60
2023-04-06T10:05:12.556Z,13.60
2023-04-06T10:09:26.193Z,13.60
2023-04-06T10:13:36.663Z,13.60
2023-04-06T10:17:48.139Z,13.60
2023-04-06T10:22:00.434Z,13.70
2023-04-06T10:26:17.627Z,13.70
2023-04-06T10:30:28.678Z,13.50
2023-04-06T10:34:39.806Z,13.60
2023-04-06T10:43:16.875Z,14.10
2023-04-06T10:47:27.089Z,14.50
2023-04-06T10:51:41.998Z,14.80
2023-04-06T10:55:53.193Z,15.20
2023-04-06T11:00:02.507Z,15.40
2023-04-06T11:04:15.314Z,15.90
2023-04-06T11:08:34.088Z,16.30
2023-04-06T11:12:44.508Z,16.40
2023-04-06T11:16:54.530Z,16.30
2023-04-06T11:21:05.099Z,16.30
2023-04-06T11:25:18.582Z,16.50
2023-04-06T11:29:30.057Z,16.90
2023-04-06T11:33:40.270Z,17.10
2023-04-06T11:37:51.707Z,16.90
2023-04-06T11:42:07.587Z,16.80
2023-04-06T11:46:22.327Z,16.80
2023-04-06T11:50:37.019Z,16.40
2023-04-06T11:54:47.000Z,16.30
2023-04-06T11:58:58.581Z,16.20
2023-04-06T12:03:07.960Z,16.30
2023-04-06T12:07:17.556Z,16.70
2023-04-06T12:11:27.186Z,16.80
2023-04-06T12:15:39.339Z,16.80
2023-04-06T12:19:48.813Z,16.90
2023-04-06T12:23:58.312Z,16.60
2023-04-06T12:28:07.742Z,16.50
2023-04-06T12:32:19.134Z,16.80
2023-04-06T12:36:28.924Z,16.90
2023-04-06T12:40:41.416Z,17.00
2023-04-06T12:44:51.302Z,17.10
2023-04-06T12:49:03.308Z,17.30
2023-04-06T12:53:13.438Z,17.10
2023-04-06T12:57:23.261Z,16.70
2023-04-06T13:01:32.785Z,16.30
2023-04-06T13:05:48.490Z,16.60
2023-04-06T13:09:58.532Z,16.70
2023-04-06T13:14:08.062Z,16.80
2023-04-06T13:18:17.353Z,17.10
2023-04-06T13:22:28.070Z,17.20
2023-04-06T13:26:37.244Z,17.30
2023-04-06T13:30:50.395Z,17.40
2023-04-06T13:35:01.830Z,17.40
2023-04-06T13:39:12.860Z,17.40
2023-04-06T13:43:22.898Z,17.50
2023-04-06T13:47:33.820Z,17.50
2023-04-06T13:51:43.564Z,17.60
2023-04-06T13:55:58.163Z,17.50
2023-04-06T14:00:10.671Z,17.50
2023-04-06T14:04:19.689Z,17.70
2023-04-06T14:08:28.692Z,17.80
2023-04-06T14:12:39.400Z,17.60
2023-04-06T14:16:48.932Z,17.40
2023-04-06T14:20:58.554Z,17.40
2023-04-06T14:25:08.262Z,17.40
2023-04-06T14:29:20.296Z,17.50
2023-04-06T14:33:29.508Z,17.50
2023-04-06T14:37:39.668Z,17.40
2023-04-06T14:41:51.109Z,17.60
2023-04-06T14:46:08.189Z,17.50
2023-04-06T14:50:19.354Z,17.60
2023-04-06T14:54:28.492Z,17.70
2023-04-06T14:58:37.458Z,17.80
2023-04-06T15:02:47.905Z,17.90
2023-04-06T15:06:56.978Z,17.90
2023-04-06T15:11:08.187Z,17.90
2023-04-06T15:15:17.355Z,18.00
2023-04-06T15:19:28.294Z,17.80
2023-04-06T15:23:37.320Z,17.70
2023-04-06T15:27:46.349Z,17.60
2023-04-06T15:31:55.504Z,17.60
2023-04-06T15:36:10.694Z,17.60
2023-04-06T15:40:19.681Z,17.70
2023-04-06T15:44:28.606Z,17.60
2023-04-06T15:48:37.658Z,17.50
2023-04-06T15:52:48.024Z,17.40
2023-04-06T15:56:57.193Z,17.10
2023-04-06T16:01:14.416Z,17.00
2023-04-06T16:05:23.757Z,16.80
2023-04-06T16:09:36.052Z,16.80
2023-04-06T16:13:49.929Z,16.70
2023-04-06T16:18:04.396Z,16.60
2023-04-06T16:22:13.507Z,16.70
2023-04-06T16:26:23.954Z,16.80
2023-04-06T16:30:33.025Z,16.80
2023-04-06T16:34:42.118Z,16.80
2023-04-06T16:38:51.165Z,16.60
2023-04-06T16:43:01.879Z,16.40
2023-04-06T16:47:11.108Z,16.40
2023-04-06T16:51:21.996Z,16.30
2023-04-06T16:55:31.809Z,16.20
2023-04-06T16:59:42.620Z,16.20
2023-04-06T17:03:52.259Z,16.10
2023-04-06T17:08:01.309Z,16.10
2023-04-06T17:12:10.463Z,16.00
2023-04-06T17:16:21.376Z,15.90
2023-04-06T17:20:30.624Z,15.90
2023-04-06T17:24:39.974Z,15.80
2023-04-06T17:28:50.373Z,15.50
2023-04-06T17:33:02.301Z,15.40
2023-04-06T17:37:11.975Z,15.40
2023-04-06T17:41:22.132Z,15.20
2023-04-06T17:45:31.427Z,14.90
2023-04-06T17:49:43.566Z,14.80
2023-04-06T17:53:52.687Z,14.70
2023-04-06T17:58:03.174Z,14.50
2023-04-06T18:02:12.595Z,14.40
2023-04-06T18:06:25.617Z,14.20
2023-04-06T18:10:38.480Z,14.00
2023-04-06T18:14:47.329Z,13.80
2023-04-06T18:18:58.227Z,13.60
2023-04-06T18:23:08.910Z,13.50
2023-04-06T18:27:19.946Z,13.30
2023-04-06T18:31:28.928Z,13.20
2023-04-06T18:35:38.705Z,13.10
2023-04-06T18:39:49.266Z,13.00
2023-04-06T18:43:58.828Z,12.90
2023-04-06T18:48:08.985Z,12.70
2023-04-06T18:52:18.058Z,12.60
2023-04-06T18:56:28.471Z,12.50
2023-04-06T19:00:38.484Z,12.40
2023-04-06T19:04:47.604Z,12.30
2023-04-06T19:08:57.209Z,12.20
2023-04-06T19:13:07.851Z,12.10
2023-04-06T19:17:17.172Z,12.00
2023-04-06T19:21:28.195Z,11.90
2023-04-06T19:25:37.388Z,11.80
2023-04-06T19:29:47.964Z,11.80
2023-04-06T19:33:57.531Z,11.70
2023-04-06T19:38:06.516Z,11.50
2023-04-06T19:42:16.344Z,11.50
2023-04-06T19:46:27.174Z,11.50
2023-04-06T19:50:36.335Z,11.40
2023-04-06T19:54:47.242Z,11.20
2023-04-06T19:58:56.615Z,11.20
2023-04-06T20:03:07.804Z,11.10
2023-04-06T20:07:16.843Z,11.10
2023-04-06T20:11:25.729Z,11.00
2023-04-06T20:15:34.608Z,11.00
2023-04-06T20:19:44.982Z,10.80
2023-04-06T20:23:53.890Z,10.70
2023-04-06T20:28:02.818Z,10.60
2023-04-06T20:32:12.629Z,10.50
2023-04-06T20:36:23.187Z,10.50
2023-04-06T20:40:32.114Z,10.40
2023-04-06T20:44:41.158Z,10.30
2023-04-06T20:48:50.136Z,10.30
2023-04-06T20:53:00.424Z,10.20
2023-04-06T20:57:09.429Z,10.10
2023-04-06T21:01:19.322Z,10.10
2023-04-06T21:05:28.422Z,10.00
2023-04-06T21:09:39.659Z,9.90
2023-04-06T21:13:49.056Z,9.80
2023-04-06T21:17:58.852Z,9.70
2023-04-06T21:22:09.080Z,9.70
2023-04-06T21:26:23.791Z,9.60
2023-04-06T21:30:37.341Z,9.60
2023-04-06T21:34:46.869Z,9.60
2023-04-06T21:38:55.715Z,9.60
2023-04-06T21:43:06.195Z,9.50
2023-04-06T21:47:14.944Z,9.50
2023-04-06T21:51:25.093Z,9.50
2023-04-06T21:55:34.003Z,9.40
2023-04-06T21:59:44.367Z,9.30
2023-04-06T22:03:53.499Z,9.20
2023-04-06T22:08:03.488Z,9.20
2023-04-06T22:12:12.551Z,9.10
2023-04-06T22:16:22.988Z,9.10
2023-04-06T22:20:32.241Z,9.10
2023-04-06T22:24:41.126Z,9.10
2023-04-06T22:28:50.054Z,9.00
2023-04-06T22:33:00.833Z,9.00
2023-04-06T22:37:09.751Z,8.90
2023-04-06T22:41:18.671Z,8.80
2023-04-06T22:45:27.605Z,8.70
2023-04-06T22:49:38.092Z,8.70
2023-04-06T22:53:47.157Z,8.70
2023-04-06T22:57:56.190Z,8.60
2023-04-06T23:02:05.216Z,8.50
2023-04-06T23:06:20.727Z,8.50
2023-04-06T23:10:30.142Z,8.50
2023-04-06T23:14:39.027Z,8.50
2023-04-06T23:18:47.904Z,8.50
2023-04-06T23:22:58.818Z,8.40
2023-04-06T23:27:07.782Z,8.30
2023-04-06T23:31:16.667Z,8.30
2023-04-06T23:35:25.629Z,8.40
2023-04-06T23:39:36.860Z,8.30
2023-04-06T23:43:45.720Z,8.10
2023-04-06T23:47:54.705Z,8.00
2023-04-06T23:52:03.651Z,8.00
2023-04-06T23:56:13.961Z,8.00
